Latest Weather Observations for Strathalbyn

IDS60901

Issued at 7:51 pm CDT Saturday 28 March 2015 (issued every 10 minutes, with the page automatically refreshed every 10 minutes)

About weather observations | Map of Adelaide area stations | Latest observations for Adelaide area | Other Formats
Station Details ID: 024580 Name: STRATHALBYN RACECOURSE Lat: -35.28 Lon: 138.89 Height: 58.0 m
Data from the previous 72 hours. | See also: Recent months at Strathalbyn
Date/Time
CDT
Tmp

°C
App
Tmp
°C
Dew
Point
°C
Rel
Hum
%
Delta-T

°C
Wind Press
QNH
hPa
Press
MSL
hPa
Rain
since
9 am
mm
Dir
 
Spd
km/h
Gust
km/h
Spd
kts
Gust
kts
28/07:30pm 17.3 14.5 10.0 62 3.9 SSW 15 17 8 9 1021.4 - 0.0
28/07:00pm 18.8 15.9 9.6 55 4.9 S 15 19 8 10 1021.2 - 0.0
28/06:30pm 20.8 17.2 4.8 35 7.8 WNW 13 20 7 11 1020.6 - 0.0
28/06:00pm 21.1 16.8 5.1 35 7.9 WNW 17 20 9 11 1020.4 1020.3 0.0
28/05:30pm 22.1 17.8 5.1 33 8.4 NW 17 24 9 13 1020.6 - 0.0
28/05:00pm 21.7 16.9 4.7 33 8.3 NW 19 26 10 14 1020.8 - 0.0
28/04:30pm 22.5 18.0 5.9 34 8.4 NW 19 28 10 15 1020.9 - 0.0
28/04:00pm 22.9 19.2 6.2 34 8.5 WNW 15 30 8 16 1021.0 - 0.0
28/03:30pm 23.2 20.1 5.6 32 8.9 WNW 11 19 6 10 1021.2 - 0.0
28/03:00pm 23.7 20.4 6.5 33 8.8 W 13 24 7 13 1021.7 1021.5 0.0
28/02:30pm 23.7 20.5 6.9 34 8.7 WNW 13 22 7 12 1021.9 - 0.0
28/02:00pm 22.1 19.7 7.1 38 7.7 ENE 9 15 5 8 1022.2 - 0.0
28/01:30pm 21.6 19.6 7.1 39 7.4 W 7 15 4 8 1022.7 - 0.0
28/01:00pm 20.7 17.8 8.0 44 6.6 NNE 13 22 7 12 1023.3 - 0.0
28/12:30pm 20.1 18.1 8.8 48 5.9 NNE 9 15 5 8 1023.8 - 0.0
28/12:00pm 18.4 16.1 8.9 54 4.9 NNE 11 20 6 11 1024.4 1024.2 0.0
28/11:30am 17.4 13.4 9.1 58 4.3 NE 20 30 11 16 1024.8 - 0.0
28/11:00am 16.6 12.9 9.3 62 3.8 NNE 19 26 10 14 1025.3 - 0.0
28/10:30am 15.8 12.5 9.5 66 3.3 NE 17 24 9 13 1025.8 - 0.0
28/10:00am 15.1 12.3 9.9 71 2.7 NE 15 20 8 11 1026.0 - 0.0
28/09:30am 14.0 11.9 9.6 75 2.3 NNE 11 19 6 10 1026.1 - 0.0
28/09:00am 12.7 11.0 9.7 82 1.5 NNW 9 15 5 8 1026.1 1025.9 0.0
28/08:30am 11.1 9.3 9.4 89 0.9 NNW 9 11 5 6 1025.9 - 0.0
28/08:00am 9.4 7.2 8.0 91 0.7 NNW 9 11 5 6 1025.8 - 0.0
28/07:30am 8.7 6.0 7.2 90 0.7 NNW 11 13 6 7 1025.7 - 0.0
28/07:00am 8.7 6.4 7.3 91 0.7 S 9 13 5 7 1025.9 - 0.0
28/06:30am 8.6 5.8 7.1 90 0.7 S 11 13 6 7 1025.7 - 0.0
28/06:00am 9.0 7.3 7.5 90 0.7 S 6 7 3 4 1025.5 1025.3 0.0
28/05:30am 9.6 7.1 8.0 90 0.8 S 11 11 6 6 1025.7 - 0.0
28/05:00am 9.8 7.7 8.1 89 0.8 S 9 11 5 6 1025.7 - 0.0
28/04:30am 10.1 8.0 8.4 89 0.8 S 9 9 5 5 1025.8 - 0.0
28/04:00am 10.0 7.5 8.1 88 0.9 S 11 13 6 7 1025.6 - 0.0
28/03:30am 10.7 8.7 8.6 87 1.0 S 9 9 5 5 1025.4 - 0.0
28/03:00am 11.2 9.9 9.1 87 1.0 S 6 7 3 4 1025.7 1025.5 0.0
28/02:30am 11.5 9.7 9.4 87 1.1 S 9 11 5 6 1026.2 - 0.0
28/02:00am 11.1 9.1 8.8 86 1.1 S 9 11 5 6 1026.6 - 0.0
28/01:30am 10.8 8.7 8.4 85 1.2 S 9 11 5 6 1026.6 - 0.0
28/01:00am 11.7 9.5 9.4 86 1.2 S 11 11 6 6 1026.6 - 0.0
28/12:30am 11.7 10.1 8.9 83 1.4 S 7 9 4 5 1026.7 - 0.0
28/12:00am 12.5 11.3 9.5 82 1.5 S 6 7 3 4 1026.9 1026.7 0.0
 
Date/Time
CDT
Tmp

°C
App
Tmp
°C
Dew
Point
°C
Rel
Hum
%
Delta-T

°C
Wind Press
QNH
hPa
Press
MSL
hPa
Rain
since
9 am
mm
Dir
 
Spd
km/h
Gust
km/h
Spd
kts
Gust
kts
27/11:30pm 13.4 13.1 10.0 80 1.8 S 2 6 1 3 1027.1 - 0.0
27/11:00pm 13.2 13.1 9.6 79 1.8 CALM 0 7 0 4 1027.2 - 0.0
27/10:30pm 13.2 13.2 9.8 80 1.7 CALM 0 0 0 0 1027.3 - 0.0
27/10:00pm 12.7 12.4 8.6 76 2.0 CALM 0 4 0 2 1027.4 - 0.0
27/09:30pm 11.9 10.7 8.2 78 1.8 S 4 6 2 3 1027.3 - 0.0
27/09:00pm 11.9 10.1 7.8 76 2.0 S 7 7 4 4 1027.2 1027.0 0.0
27/08:30pm 12.2 10.9 7.7 74 2.2 S 4 6 2 3 1027.2 - 0.0
27/08:00pm 13.1 10.5 7.8 70 2.6 S 11 11 6 6 1027.0 - 0.0
27/07:30pm 14.8 11.2 8.5 66 3.2 S 17 20 9 11 1026.9 - 0.0
27/07:00pm 15.3 11.7 8.5 64 3.5 S 17 22 9 12 1026.8 - 0.0
27/06:30pm 16.2 12.2 8.9 62 3.8 S 20 24 11 13 1026.6 - 0.0
27/06:00pm 16.1 13.4 9.1 63 3.6 SE 13 22 7 12 1026.4 1026.2 0.0
27/05:30pm 16.6 12.2 8.8 60 4.0 S 22 32 12 17 1026.3 - 0.0
27/05:00pm 17.2 13.1 8.6 57 4.4 S 20 28 11 15 1026.3 - 0.0
27/04:30pm 17.6 12.8 9.0 57 4.5 S 24 30 13 16 1026.3 - 0.0
27/04:00pm 17.9 13.6 7.9 52 5.1 SSW 20 28 11 15 1026.4 - 0.0
27/03:30pm 17.8 13.6 8.1 53 5.0 S 20 28 11 15 1026.4 - 0.0
27/03:00pm 17.7 13.0 7.7 52 5.0 SSW 22 32 12 17 1026.6 1026.4 0.0
27/02:30pm 18.0 13.7 7.7 51 5.2 S 20 30 11 16 1026.9 - 0.0
27/02:00pm 17.0 12.6 7.4 53 4.8 S 20 28 11 15 1027.3 - 0.0
27/01:30pm 17.1 13.0 7.7 54 4.8 S 19 26 10 14 1027.8 - 0.0
27/01:00pm 17.1 13.7 7.7 54 4.8 SW 15 22 8 12 1028.2 - 0.0
27/12:30pm 16.0 12.3 8.0 59 4.0 SSW 17 30 9 16 1028.6 - 0.0
27/12:00pm 16.6 14.9 9.8 64 3.5 WSW 9 22 5 12 1028.9 1028.7 0.0
27/11:30am 14.0 12.5 10.4 79 1.9 WSW 9 13 5 7 1029.4 - 0.0
27/11:00am 13.5 8.6 9.9 79 1.9 SSW 26 33 14 18 1029.7 - 0.0
27/10:30am 15.1 12.2 8.3 64 3.4 SSW 13 20 7 11 1029.5 - 0.0
27/10:00am 14.0 12.2 8.0 67 3.0 SSW 7 9 4 5 1029.5 - 0.0
27/09:30am 14.0 11.0 7.5 65 3.2 WSW 13 20 7 11 1029.3 - 0.0
27/09:00am 14.4 11.7 7.2 62 3.5 W 11 15 6 8 1028.9 1028.7 0.0
27/08:30am 14.3 10.8 7.1 62 3.5 SSW 15 22 8 12 1028.6 - 0.0
27/08:00am 13.9 11.9 7.0 63 3.4 WSW 7 11 4 6 1028.3 - 0.0
27/07:30am 13.8 11.3 6.4 61 3.6 WSW 9 15 5 8 1028.0 - 0.0
27/07:00am 13.9 10.6 6.3 60 3.6 WSW 13 17 7 9 1027.8 - 0.0
27/06:30am 13.7 10.4 6.3 61 3.5 WSW 13 19 7 10 1027.4 - 0.0
27/06:00am 13.8 10.2 6.7 62 3.4 WSW 15 20 8 11 1027.3 1027.1 0.0
27/05:30am 13.5 10.3 6.8 64 3.2 W 13 17 7 9 1027.0 - 0.0
27/05:00am 13.5 10.4 7.3 66 3.0 W 13 17 7 9 1026.8 - 0.0
27/04:30am 13.4 9.9 7.4 67 2.9 W 15 19 8 10 1026.9 - 0.0
27/04:00am 13.4 9.9 7.4 67 2.9 W 15 19 8 10 1027.0 - 0.0
27/03:30am 13.3 10.7 7.7 69 2.8 W 11 15 6 8 1027.1 - 0.0
27/03:00am 13.3 9.9 7.7 69 2.7 WSW 15 20 8 11 1027.3 1027.1 0.0
27/02:30am 13.4 9.5 7.2 66 3.0 W 17 24 9 13 1027.4 - 0.0
27/02:00am 13.7 9.8 7.0 64 3.3 W 17 22 9 12 1027.4 - 0.0
27/01:30am 13.5 10.1 7.5 67 2.9 W 15 20 8 11 1027.4 - 0.0
27/01:00am 13.4 9.0 7.6 68 2.9 W 20 30 11 16 1027.6 - 0.0
27/12:30am 13.4 9.9 7.2 66 3.0 W 15 22 8 12 1027.7 - 0.0
27/12:00am 13.3 9.9 7.5 68 2.8 W 15 20 8 11 1027.7 1027.5 0.0
 
Date/Time
CDT
Tmp

°C
App
Tmp
°C
Dew
Point
°C
Rel
Hum
%
Delta-T

°C
Wind Press
QNH
hPa
Press
MSL
hPa
Rain
since
9 am
mm
Dir
 
Spd
km/h
Gust
km/h
Spd
kts
Gust
kts
26/11:30pm 12.7 8.6 7.8 72 2.4 W 19 28 10 15 1027.8 - 0.0
26/11:00pm 12.6 7.9 7.7 72 2.4 W 22 30 12 16 1028.0 - 0.0
26/10:30pm 13.2 9.3 7.2 67 2.9 W 17 28 9 15 1027.9 - 0.0
26/10:00pm 12.7 8.9 7.4 70 2.6 W 17 24 9 13 1027.9 - 0.0
26/09:30pm 13.3 9.1 7.3 67 2.9 WSW 19 32 10 17 1027.9 - 0.0
26/09:00pm 13.1 9.2 7.3 68 2.8 W 17 24 9 13 1027.7 1027.5 0.0
26/08:30pm 12.8 9.1 7.9 72 2.4 SW 17 24 9 13 1027.9 - 0.0
26/08:00pm 13.6 9.2 6.5 62 3.4 W 19 28 10 15 1027.6 - 0.0
26/07:30pm 14.0 9.0 6.4 60 3.7 WSW 22 32 12 17 1027.4 - 0.0
26/07:00pm 14.6 10.4 5.7 55 4.2 WSW 17 24 9 13 1027.0 - 0.0
26/06:30pm 14.4 8.2 6.0 57 4.0 SSW 28 41 15 22 1026.6 - 0.0
26/06:00pm 15.4 8.0 4.2 47 5.2 SW 32 39 17 21 1026.2 1026.0 0.0
26/05:30pm 16.2 8.6 2.9 41 6.1 SW 32 43 17 23 1025.9 - 0.0
26/05:00pm 16.6 10.0 4.0 43 5.9 SSW 28 41 15 22 1025.7 - 0.0
26/04:30pm 16.3 10.1 4.4 45 5.6 SW 26 35 14 19 1025.6 - 0.0
26/04:00pm 15.8 8.6 5.7 51 4.9 SSW 33 50 18 27 1025.5 - 0.0
26/03:30pm 17.1 10.1 4.1 42 6.1 SSW 30 48 16 26 1025.3 - 0.0
26/03:29pm 17.1 10.2 4.4 43 6.0 SSW 30 48 16 26 1025.3 - 0.0
26/03:00pm 17.7 10.1 5.9 46 5.7 SSW 35 46 19 25 1025.2 1025.0 0.0
26/02:30pm 17.2 10.9 5.8 47 5.6 SW 28 41 15 22 1025.6 - 0.0
26/02:18pm 16.3 9.9 5.0 47 5.4 SW 28 46 15 25 1025.6 - 0.0
26/02:00pm 16.1 8.3 6.8 54 4.6 SSW 37 48 20 26 1025.6 - 0.0
26/01:30pm 16.7 9.4 5.3 47 5.5 SW 33 46 18 25 1025.9 - 0.0
26/01:19pm 16.6 9.4 5.9 49 5.2 SSW 33 52 18 28 1025.8 - 0.0
26/01:00pm 16.8 10.4 3.1 40 6.3 WSW 26 39 14 21 1025.8 - 0.0
26/12:30pm 16.9 11.0 3.9 42 6.1 SW 24 41 13 22 1025.7 - 0.0
26/12:00pm 16.1 8.3 4.8 47 5.3 SW 35 46 19 25 1025.9 1025.7 0.0
26/11:30am 16.8 9.3 4.5 44 5.8 SW 33 46 18 25 1025.8 - 0.0
26/11:00am 16.0 9.8 4.1 45 5.5 SW 26 39 14 21 1025.7 - 0.0
26/10:30am 15.4 9.3 4.8 49 5.0 WSW 26 39 14 21 1025.5 - 0.0
26/10:00am 14.4 8.7 4.7 52 4.5 WSW 24 35 13 19 1025.3 - 0.0
26/09:30am 14.1 8.8 4.9 54 4.3 WSW 22 37 12 20 1025.0 - 0.0
26/09:00am 13.2 7.4 4.6 56 3.9 WSW 24 33 13 18 1024.5 1024.3 0.8
26/08:30am 12.4 7.0 4.6 59 3.6 W 22 32 12 17 1024.0 - 0.8
26/08:00am 11.4 6.6 4.8 64 3.0 W 19 26 10 14 1023.7 - 0.8
26/07:30am 10.8 6.4 4.9 67 2.7 W 17 24 9 13 1023.4 - 0.8
26/07:00am 10.4 6.3 4.5 67 2.6 W 15 22 8 12 1022.9 - 0.8
26/06:30am 10.6 5.6 4.7 67 2.7 W 20 28 11 15 1022.6 - 0.8
26/06:00am 10.7 5.7 4.8 67 2.7 W 20 28 11 15 1022.3 1022.1 0.8
26/05:30am 10.8 5.5 4.9 67 2.7 W 22 35 12 19 1021.9 - 0.8
26/05:00am 10.8 5.8 4.5 65 2.8 W 20 32 11 17 1021.6 - 0.8
26/04:30am 10.4 5.5 3.9 64 2.9 W 19 26 10 14 1021.7 - 0.8
26/04:00am 10.4 5.5 4.1 65 2.8 W 19 24 10 13 1021.6 - 0.8
26/03:30am 11.2 6.1 4.0 61 3.2 WSW 20 32 11 17 1021.6 - 0.8
26/03:00am 11.0 5.1 3.8 61 3.2 W 24 33 13 18 1021.6 1021.4 0.8
26/02:30am 10.8 5.8 3.8 62 3.1 W 19 24 10 13 1021.5 - 0.8
26/02:00am 11.1 5.2 3.9 61 3.2 W 24 33 13 18 1021.4 - 0.8
26/01:30am 11.0 5.5 3.8 61 3.2 W 22 33 12 18 1021.3 - 0.8
26/01:00am 11.4 5.8 3.7 59 3.4 W 22 32 12 17 1021.1 - 0.8
26/12:30am 11.4 6.2 3.7 59 3.4 W 20 32 11 17 1021.1 - 0.8
26/12:00am 11.5 6.3 3.8 59 3.4 W 20 28 11 15 1021.1 1020.9 0.8
 
Date/Time
CDT
Tmp

°C
App
Tmp
°C
Dew
Point
°C
Rel
Hum
%
Delta-T

°C
Wind Press
QNH
hPa
Press
MSL
hPa
Rain
since
9 am
mm
Dir
 
Spd
km/h
Gust
km/h
Spd
kts
Gust
kts
25/11:30pm 11.3 6.2 4.1 61 3.2 W 20 28 11 15 1021.0 - 0.8
25/11:00pm 11.6 5.7 4.1 60 3.4 W 24 35 13 19 1020.8 - 0.8
25/10:30pm 11.7 6.3 4.4 61 3.3 W 22 30 12 16 1020.5 - 0.8
25/10:00pm 11.8 6.5 5.0 63 3.1 W 22 30 12 16 1020.5 - 0.8
25/09:30pm 11.9 6.8 5.8 66 2.9 WSW 22 32 12 17 1020.2 - 0.8
25/09:00pm 12.2 7.8 6.7 69 2.6 WSW 19 28 10 15 1019.7 1019.6 0.8
25/08:30pm 12.5 8.3 7.6 72 2.4 W 19 28 10 15 1019.0 - 0.8
25/08:00pm 12.2 7.5 7.7 74 2.2 W 22 30 12 16 1018.8 - 0.8

Latest Capital City Observations: Canberra | Sydney | Melbourne | Brisbane | Adelaide | Perth | Hobart | Darwin

Other Formats:

Comma delimited format used in spreadsheet applications
http://www.bom.gov.au/fwo/IDS60901/IDS60901.94814.axf

JavaScript Object Notation format (JSON) in row-major order
http://www.bom.gov.au/fwo/IDS60901/IDS60901.94814.json